sensor_id;sensor_type;location;lat;lon;timestamp;P1;durP1;ratioP1;P2;durP2;ratioP2
25932;SDS011;13731;51.166;4.474;2023-11-22T00:00:45;241.48;;;227.10;;
25932;SDS011;13731;51.166;4.474;2023-11-22T00:03:12;234.07;;;219.75;;
25932;SDS011;13731;51.166;4.474;2023-11-22T00:05:38;242.82;;;228.07;;
25932;SDS011;13731;51.166;4.474;2023-11-22T00:08:04;238.45;;;223.65;;
25932;SDS011;13731;51.166;4.474;2023-11-22T00:10:30;220.65;;;206.25;;
25932;SDS011;13731;51.166;4.474;2023-11-22T00:12:55;249.15;;;233.55;;
25932;SDS011;13731;51.166;4.474;2023-11-22T00:15:21;252.50;;;236.52;;
25932;SDS011;13731;51.166;4.474;2023-11-22T00:17:47;233.93;;;219.27;;
25932;SDS011;13731;51.166;4.474;2023-11-22T00:20:13;242.07;;;227.48;;
25932;SDS011;13731;51.166;4.474;2023-11-22T00:22:39;229.50;;;214.90;;
25932;SDS011;13731;51.166;4.474;2023-11-22T00:25:07;230.43;;;216.35;;
25932;SDS011;13731;51.166;4.474;2023-11-22T00:27:34;249.35;;;234.60;;
25932;SDS011;13731;51.166;4.474;2023-11-22T00:30:00;229.73;;;216.02;;
25932;SDS011;13731;51.166;4.474;2023-11-22T00:32:26;249.18;;;234.10;;
25932;SDS011;13731;51.166;4.474;2023-11-22T00:34:52;246.77;;;232.02;;
25932;SDS011;13731;51.166;4.474;2023-11-22T00:37:18;268.77;;;252.93;;
25932;SDS011;13731;51.166;4.474;2023-11-22T00:39:44;261.83;;;245.90;;
25932;SDS011;13731;51.166;4.474;2023-11-22T00:42:10;266.00;;;250.05;;
25932;SDS011;13731;51.166;4.474;2023-11-22T00:44:37;255.65;;;240.40;;
25932;SDS011;13731;51.166;4.474;2023-11-22T00:47:03;248.77;;;233.93;;
25932;SDS011;13731;51.166;4.474;2023-11-22T00:49:29;257.75;;;242.38;;
25932;SDS011;13731;51.166;4.474;2023-11-22T00:51:55;246.48;;;231.57;;
25932;SDS011;13731;51.166;4.474;2023-11-22T00:54:21;250.68;;;235.05;;
25932;SDS011;13731;51.166;4.474;2023-11-22T00:56:47;250.40;;;235.80;;
25932;SDS011;13731;51.166;4.474;2023-11-22T00:59:13;242.00;;;226.95;;
25932;SDS011;13731;51.166;4.474;2023-11-22T01:01:41;250.68;;;235.13;;
25932;SDS011;13731;51.166;4.474;2023-11-22T01:04:07;248.93;;;233.07;;
25932;SDS011;13731;51.166;4.474;2023-11-22T01:06:33;235.32;;;220.63;;
25932;SDS011;13731;51.166;4.474;2023-11-22T01:09:00;260.90;;;244.98;;
25932;SDS011;13731;51.166;4.474;2023-11-22T01:11:25;251.23;;;236.13;;
25932;SDS011;13731;51.166;4.474;2023-11-22T01:13:52;227.88;;;212.55;;
25932;SDS011;13731;51.166;4.474;2023-11-22T01:16:18;219.00;;;204.73;;
25932;SDS011;13731;51.166;4.474;2023-11-22T01:18:44;232.27;;;216.90;;
25932;SDS011;13731;51.166;4.474;2023-11-22T01:21:11;245.23;;;228.30;;
25932;SDS011;13731;51.166;4.474;2023-11-22T01:23:37;253.45;;;235.52;;
25932;SDS011;13731;51.166;4.474;2023-11-22T01:26:04;242.82;;;225.50;;
25932;SDS011;13731;51.166;4.474;2023-11-22T01:28:30;230.32;;;213.75;;
25932;SDS011;13731;51.166;4.474;2023-11-22T01:31:00;235.60;;;219.35;;
25932;SDS011;13731;51.166;4.474;2023-11-22T01:33:27;250.45;;;233.75;;
25932;SDS011;13731;51.166;4.474;2023-11-22T01:35:54;220.73;;;205.77;;
25932;SDS011;13731;51.166;4.474;2023-11-22T01:38:21;231.57;;;216.48;;
25932;SDS011;13731;51.166;4.474;2023-11-22T01:40:48;245.55;;;229.93;;
25932;SDS011;13731;51.166;4.474;2023-11-22T01:43:17;233.45;;;218.18;;
25932;SDS011;13731;51.166;4.474;2023-11-22T01:45:44;222.07;;;207.02;;
25932;SDS011;13731;51.166;4.474;2023-11-22T01:48:10;225.93;;;211.45;;
25932;SDS011;13731;51.166;4.474;2023-11-22T01:50:37;237.27;;;222.05;;
25932;SDS011;13731;51.166;4.474;2023-11-22T01:53:10;228.00;;;212.73;;
25932;SDS011;13731;51.166;4.474;2023-11-22T01:55:38;238.52;;;223.05;;
25932;SDS011;13731;51.166;4.474;2023-11-22T01:58:05;231.20;;;216.10;;
25932;SDS011;13731;51.166;4.474;2023-11-22T02:00:31;233.93;;;218.07;;
25932;SDS011;13731;51.166;4.474;2023-11-22T02:03:01;244.85;;;228.75;;
25932;SDS011;13731;51.166;4.474;2023-11-22T02:05:27;224.98;;;210.40;;
25932;SDS011;13731;51.166;4.474;2023-11-22T02:07:53;226.65;;;212.00;;
25932;SDS011;13731;51.166;4.474;2023-11-22T02:10:20;227.68;;;212.23;;
25932;SDS011;13731;51.166;4.474;2023-11-22T02:12:46;240.75;;;225.43;;
25932;SDS011;13731;51.166;4.474;2023-11-22T02:15:12;225.52;;;210.57;;
25932;SDS011;13731;51.166;4.474;2023-11-22T02:17:38;221.18;;;206.90;;
25932;SDS011;13731;51.166;4.474;2023-11-22T02:20:04;228.30;;;213.18;;
25932;SDS011;13731;51.166;4.474;2023-11-22T02:22:41;227.68;;;212.63;;
25932;SDS011;13731;51.166;4.474;2023-11-22T02:25:11;218.27;;;203.15;;
25932;SDS011;13731;51.166;4.474;2023-11-22T02:27:43;235.02;;;219.88;;
25932;SDS011;13731;51.166;4.474;2023-11-22T02:30:10;214.93;;;200.98;;
25932;SDS011;13731;51.166;4.474;2023-11-22T02:32:39;227.32;;;212.25;;
25932;SDS011;13731;51.166;4.474;2023-11-22T02:35:05;231.90;;;217.30;;
25932;SDS011;13731;51.166;4.474;2023-11-22T02:37:33;222.75;;;208.80;;
25932;SDS011;13731;51.166;4.474;2023-11-22T02:40:13;221.57;;;207.73;;
25932;SDS011;13731;51.166;4.474;2023-11-22T02:42:48;224.85;;;210.98;;
25932;SDS011;13731;51.166;4.474;2023-11-22T02:45:16;227.45;;;212.73;;
25932;SDS011;13731;51.166;4.474;2023-11-22T02:47:48;218.35;;;203.52;;
25932;SDS011;13731;51.166;4.474;2023-11-22T02:50:15;200.98;;;187.38;;
25932;SDS011;13731;51.166;4.474;2023-11-22T02:52:42;223.45;;;208.25;;
25932;SDS011;13731;51.166;4.474;2023-11-22T02:55:08;224.02;;;208.52;;
25932;SDS011;13731;51.166;4.474;2023-11-22T02:57:35;207.50;;;193.40;;
25932;SDS011;13731;51.166;4.474;2023-11-22T03:00:02;212.18;;;197.75;;
25932;SDS011;13731;51.166;4.474;2023-11-22T03:02:36;208.25;;;194.43;;
25932;SDS011;13731;51.166;4.474;2023-11-22T03:05:03;215.90;;;200.00;;
25932;SDS011;13731;51.166;4.474;2023-11-22T03:07:29;210.38;;;194.18;;
25932;SDS011;13731;51.166;4.474;2023-11-22T03:09:56;227.95;;;211.65;;
25932;SDS011;13731;51.166;4.474;2023-11-22T03:12:25;224.95;;;209.85;;
25932;SDS011;13731;51.166;4.474;2023-11-22T03:14:51;223.27;;;207.68;;
25932;SDS011;13731;51.166;4.474;2023-11-22T03:17:19;221.93;;;206.63;;
25932;SDS011;13731;51.166;4.474;2023-11-22T03:19:45;220.88;;;204.55;;
25932;SDS011;13731;51.166;4.474;2023-11-22T03:22:11;190.05;;;175.85;;
25932;SDS011;13731;51.166;4.474;2023-11-22T03:24:37;210.18;;;195.27;;
25932;SDS011;13731;51.166;4.474;2023-11-22T03:27:04;204.10;;;189.77;;
25932;SDS011;13731;51.166;4.474;2023-11-22T03:29:31;203.95;;;190.25;;
25932;SDS011;13731;51.166;4.474;2023-11-22T03:31:57;212.88;;;198.32;;
25932;SDS011;13731;51.166;4.474;2023-11-22T03:34:23;202.20;;;188.27;;
25932;SDS011;13731;51.166;4.474;2023-11-22T03:36:50;189.98;;;176.02;;
25932;SDS011;13731;51.166;4.474;2023-11-22T03:39:16;202.93;;;186.57;;
25932;SDS011;13731;51.166;4.474;2023-11-22T03:41:42;177.10;;;163.05;;
25932;SDS011;13731;51.166;4.474;2023-11-22T03:44:08;195.27;;;181.23;;
25932;SDS011;13731;51.166;4.474;2023-11-22T03:46:34;207.65;;;193.25;;
25932;SDS011;13731;51.166;4.474;2023-11-22T03:49:02;185.65;;;172.57;;
25932;SDS011;13731;51.166;4.474;2023-11-22T03:51:29;190.00;;;175.48;;
25932;SDS011;13731;51.166;4.474;2023-11-22T03:53:55;182.25;;;167.48;;
25932;SDS011;13731;51.166;4.474;2023-11-22T03:56:25;167.55;;;153.82;;
25932;SDS011;13731;51.166;4.474;2023-11-22T03:58:51;166.88;;;153.38;;
25932;SDS011;13731;51.166;4.474;2023-11-22T04:01:17;181.15;;;166.35;;
25932;SDS011;13731;51.166;4.474;2023-11-22T04:03:43;181.85;;;168.30;;
25932;SDS011;13731;51.166;4.474;2023-11-22T04:06:10;181.02;;;167.43;;
25932;SDS011;13731;51.166;4.474;2023-11-22T04:08:36;182.98;;;169.10;;
25932;SDS011;13731;51.166;4.474;2023-11-22T04:11:03;182.77;;;168.32;;
25932;SDS011;13731;51.166;4.474;2023-11-22T04:13:30;196.40;;;181.90;;
25932;SDS011;13731;51.166;4.474;2023-11-22T04:15:57;178.57;;;165.75;;
25932;SDS011;13731;51.166;4.474;2023-11-22T04:18:23;174.40;;;160.95;;
25932;SDS011;13731;51.166;4.474;2023-11-22T04:20:49;181.18;;;165.65;;
25932;SDS011;13731;51.166;4.474;2023-11-22T04:23:16;175.88;;;161.43;;
25932;SDS011;13731;51.166;4.474;2023-11-22T04:25:45;173.27;;;160.18;;
25932;SDS011;13731;51.166;4.474;2023-11-22T04:28:11;198.18;;;182.13;;
25932;SDS011;13731;51.166;4.474;2023-11-22T04:30:37;175.00;;;160.18;;
25932;SDS011;13731;51.166;4.474;2023-11-22T04:33:03;165.80;;;150.57;;
25932;SDS011;13731;51.166;4.474;2023-11-22T04:35:30;167.07;;;151.55;;
25932;SDS011;13731;51.166;4.474;2023-11-22T04:38:01;149.90;;;135.77;;
25932;SDS011;13731;51.166;4.474;2023-11-22T04:40:27;147.73;;;133.25;;
25932;SDS011;13731;51.166;4.474;2023-11-22T04:42:53;149.63;;;135.52;;
25932;SDS011;13731;51.166;4.474;2023-11-22T04:45:19;176.68;;;161.02;;
25932;SDS011;13731;51.166;4.474;2023-11-22T04:47:45;156.00;;;140.93;;
25932;SDS011;13731;51.166;4.474;2023-11-22T04:50:11;160.73;;;145.80;;
25932;SDS011;13731;51.166;4.474;2023-11-22T04:52:37;167.18;;;150.60;;
25932;SDS011;13731;51.166;4.474;2023-11-22T04:55:04;172.10;;;156.63;;
25932;SDS011;13731;51.166;4.474;2023-11-22T04:57:31;154.43;;;138.77;;
25932;SDS011;13731;51.166;4.474;2023-11-22T04:59:57;149.20;;;134.80;;
25932;SDS011;13731;51.166;4.474;2023-11-22T05:02:25;170.27;;;154.93;;
25932;SDS011;13731;51.166;4.474;2023-11-22T05:04:52;174.80;;;159.70;;
25932;SDS011;13731;51.166;4.474;2023-11-22T05:07:18;189.23;;;173.27;;
25932;SDS011;13731;51.166;4.474;2023-11-22T05:09:44;188.57;;;172.50;;
25932;SDS011;13731;51.166;4.474;2023-11-22T05:12:10;185.25;;;168.98;;
25932;SDS011;13731;51.166;4.474;2023-11-22T05:14:37;179.98;;;164.18;;
25932;SDS011;13731;51.166;4.474;2023-11-22T05:17:04;179.77;;;165.35;;
25932;SDS011;13731;51.166;4.474;2023-11-22T05:19:30;186.50;;;171.43;;
25932;SDS011;13731;51.166;4.474;2023-11-22T05:21:56;185.32;;;170.88;;
25932;SDS011;13731;51.166;4.474;2023-11-22T05:24:25;184.25;;;169.35;;
25932;SDS011;13731;51.166;4.474;2023-11-22T05:26:53;194.35;;;179.20;;
25932;SDS011;13731;51.166;4.474;2023-11-22T05:29:19;205.25;;;189.82;;
25932;SDS011;13731;51.166;4.474;2023-11-22T05:31:45;193.40;;;177.45;;
25932;SDS011;13731;51.166;4.474;2023-11-22T05:34:11;194.80;;;178.52;;
25932;SDS011;13731;51.166;4.474;2023-11-22T05:36:37;205.02;;;188.07;;
25932;SDS011;13731;51.166;4.474;2023-11-22T05:39:03;191.10;;;175.15;;
25932;SDS011;13731;51.166;4.474;2023-11-22T05:41:29;195.65;;;179.95;;
25932;SDS011;13731;51.166;4.474;2023-11-22T05:43:56;200.15;;;184.70;;
25932;SDS011;13731;51.166;4.474;2023-11-22T05:46:22;195.27;;;179.10;;
25932;SDS011;13731;51.166;4.474;2023-11-22T05:48:50;184.93;;;169.68;;
25932;SDS011;13731;51.166;4.474;2023-11-22T05:51:17;190.80;;;176.63;;
25932;SDS011;13731;51.166;4.474;2023-11-22T05:53:43;191.20;;;176.27;;
25932;SDS011;13731;51.166;4.474;2023-11-22T05:56:09;196.65;;;181.20;;
25932;SDS011;13731;51.166;4.474;2023-11-22T05:58:35;185.80;;;170.95;;
25932;SDS011;13731;51.166;4.474;2023-11-22T06:01:05;199.88;;;184.68;;
25932;SDS011;13731;51.166;4.474;2023-11-22T06:03:31;194.25;;;178.57;;
25932;SDS011;13731;51.166;4.474;2023-11-22T06:05:57;193.48;;;178.30;;
25932;SDS011;13731;51.166;4.474;2023-11-22T06:08:23;190.27;;;175.27;;
25932;SDS011;13731;51.166;4.474;2023-11-22T06:10:50;195.60;;;179.85;;
25932;SDS011;13731;51.166;4.474;2023-11-22T06:13:17;211.07;;;195.05;;
25932;SDS011;13731;51.166;4.474;2023-11-22T06:15:43;212.27;;;197.07;;
25932;SDS011;13731;51.166;4.474;2023-11-22T06:18:09;190.98;;;176.02;;
25932;SDS011;13731;51.166;4.474;2023-11-22T06:20:35;193.10;;;178.43;;
25932;SDS011;13731;51.166;4.474;2023-11-22T06:23:04;193.93;;;178.95;;
25932;SDS011;13731;51.166;4.474;2023-11-22T06:25:30;175.70;;;162.07;;
25932;SDS011;13731;51.166;4.474;2023-11-22T06:27:56;182.93;;;168.90;;
25932;SDS011;13731;51.166;4.474;2023-11-22T06:30:22;199.00;;;184.13;;
25932;SDS011;13731;51.166;4.474;2023-11-22T06:32:50;180.98;;;167.88;;
25932;SDS011;13731;51.166;4.474;2023-11-22T06:35:16;197.93;;;183.30;;
25932;SDS011;13731;51.166;4.474;2023-11-22T06:37:44;167.70;;;154.77;;
25932;SDS011;13731;51.166;4.474;2023-11-22T06:40:10;196.27;;;181.40;;
25932;SDS011;13731;51.166;4.474;2023-11-22T06:42:40;202.57;;;187.02;;
25932;SDS011;13731;51.166;4.474;2023-11-22T06:45:07;197.73;;;183.25;;
25932;SDS011;13731;51.166;4.474;2023-11-22T06:47:38;197.05;;;182.20;;
25932;SDS011;13731;51.166;4.474;2023-11-22T06:50:05;197.75;;;183.43;;
25932;SDS011;13731;51.166;4.474;2023-11-22T06:52:40;192.93;;;178.63;;
25932;SDS011;13731;51.166;4.474;2023-11-22T06:55:07;184.65;;;170.45;;
25932;SDS011;13731;51.166;4.474;2023-11-22T06:57:37;196.32;;;182.50;;
25932;SDS011;13731;51.166;4.474;2023-11-22T07:00:04;194.70;;;180.40;;
25932;SDS011;13731;51.166;4.474;2023-11-22T07:02:34;208.23;;;193.18;;
25932;SDS011;13731;51.166;4.474;2023-11-22T07:05:00;186.52;;;172.50;;
25932;SDS011;13731;51.166;4.474;2023-11-22T07:07:28;185.85;;;172.52;;
25932;SDS011;13731;51.166;4.474;2023-11-22T07:09:55;166.73;;;154.75;;
25932;SDS011;13731;51.166;4.474;2023-11-22T07:14:50;154.57;;;142.60;;
25932;SDS011;13731;51.166;4.474;2023-11-22T07:17:16;187.50;;;173.43;;
25932;SDS011;13731;51.166;4.474;2023-11-22T07:19:47;161.02;;;148.23;;
25932;SDS011;13731;51.166;4.474;2023-11-22T07:22:16;194.05;;;179.05;;
25932;SDS011;13731;51.166;4.474;2023-11-22T07:24:43;183.65;;;168.63;;
25932;SDS011;13731;51.166;4.474;2023-11-22T07:27:13;206.27;;;189.40;;
25932;SDS011;13731;51.166;4.474;2023-11-22T07:29:40;180.23;;;165.25;;
25932;SDS011;13731;51.166;4.474;2023-11-22T07:32:07;190.35;;;174.45;;
25932;SDS011;13731;51.166;4.474;2023-11-22T07:34:34;182.18;;;165.60;;
25932;SDS011;13731;51.166;4.474;2023-11-22T07:37:01;180.45;;;164.55;;
25932;SDS011;13731;51.166;4.474;2023-11-22T07:39:28;173.70;;;158.65;;
25932;SDS011;13731;51.166;4.474;2023-11-22T07:41:56;170.25;;;156.13;;
25932;SDS011;13731;51.166;4.474;2023-11-22T07:44:23;179.00;;;164.27;;
25932;SDS011;13731;51.166;4.474;2023-11-22T07:46:49;179.70;;;164.98;;
25932;SDS011;13731;51.166;4.474;2023-11-22T07:49:25;159.23;;;145.38;;
25932;SDS011;13731;51.166;4.474;2023-11-22T07:51:51;181.88;;;166.70;;
25932;SDS011;13731;51.166;4.474;2023-11-22T07:54:20;164.55;;;151.55;;
25932;SDS011;13731;51.166;4.474;2023-11-22T07:56:50;161.40;;;148.82;;
25932;SDS011;13731;51.166;4.474;2023-11-22T07:59:19;176.80;;;164.32;;
25932;SDS011;13731;51.166;4.474;2023-11-22T08:01:45;177.73;;;165.02;;
25932;SDS011;13731;51.166;4.474;2023-11-22T08:04:15;186.13;;;173.23;;
25932;SDS011;13731;51.166;4.474;2023-11-22T08:06:44;156.77;;;144.98;;
25932;SDS011;13731;51.166;4.474;2023-11-22T08:09:10;174.48;;;161.18;;
25932;SDS011;13731;51.166;4.474;2023-11-22T08:11:36;195.85;;;181.45;;
25932;SDS011;13731;51.166;4.474;2023-11-22T08:14:02;195.95;;;180.90;;
25932;SDS011;13731;51.166;4.474;2023-11-22T08:16:29;195.60;;;181.77;;
25932;SDS011;13731;51.166;4.474;2023-11-22T08:18:54;205.55;;;191.20;;
25932;SDS011;13731;51.166;4.474;2023-11-22T08:21:22;203.30;;;186.80;;
25932;SDS011;13731;51.166;4.474;2023-11-22T08:23:48;177.90;;;163.73;;
25932;SDS011;13731;51.166;4.474;2023-11-22T08:26:15;175.43;;;160.88;;
25932;SDS011;13731;51.166;4.474;2023-11-22T08:28:41;213.80;;;194.23;;
25932;SDS011;13731;51.166;4.474;2023-11-22T08:31:07;184.65;;;168.63;;
25932;SDS011;13731;51.166;4.474;2023-11-22T08:33:39;294.40;;;180.55;;
25932;SDS011;13731;51.166;4.474;2023-11-22T08:36:08;207.38;;;193.88;;
25932;SDS011;13731;51.166;4.474;2023-11-22T08:38:35;208.85;;;191.40;;
25932;SDS011;13731;51.166;4.474;2023-11-22T08:41:04;206.70;;;191.60;;
25932;SDS011;13731;51.166;4.474;2023-11-22T08:43:31;167.93;;;156.68;;
25932;SDS011;13731;51.166;4.474;2023-11-22T08:45:57;182.43;;;169.10;;
25932;SDS011;13731;51.166;4.474;2023-11-22T08:48:24;201.18;;;188.32;;
25932;SDS011;13731;51.166;4.474;2023-11-22T08:50:50;210.30;;;183.38;;
25932;SDS011;13731;51.166;4.474;2023-11-22T08:53:18;164.63;;;152.70;;
25932;SDS011;13731;51.166;4.474;2023-11-22T08:55:45;180.32;;;166.20;;
25932;SDS011;13731;51.166;4.474;2023-11-22T08:58:12;199.90;;;186.75;;
25932;SDS011;13731;51.166;4.474;2023-11-22T09:00:39;213.30;;;199.27;;
25932;SDS011;13731;51.166;4.474;2023-11-22T09:03:09;213.88;;;197.75;;
25932;SDS011;13731;51.166;4.474;2023-11-22T09:05:41;212.38;;;198.95;;
25932;SDS011;13731;51.166;4.474;2023-11-22T09:08:08;225.98;;;209.40;;
25932;SDS011;13731;51.166;4.474;2023-11-22T09:10:38;233.73;;;219.65;;
25932;SDS011;13731;51.166;4.474;2023-11-22T09:13:05;216.52;;;202.85;;
25932;SDS011;13731;51.166;4.474;2023-11-22T09:15:31;218.57;;;205.38;;
25932;SDS011;13731;51.166;4.474;2023-11-22T09:17:59;240.60;;;223.52;;
25932;SDS011;13731;51.166;4.474;2023-11-22T09:20:25;217.93;;;204.38;;
25932;SDS011;13731;51.166;4.474;2023-11-22T09:22:52;238.07;;;221.85;;
25932;SDS011;13731;51.166;4.474;2023-11-22T09:25:23;244.35;;;229.10;;
25932;SDS011;13731;51.166;4.474;2023-11-22T09:27:54;219.65;;;206.07;;
25932;SDS011;13731;51.166;4.474;2023-11-22T09:30:31;217.52;;;203.55;;
25932;SDS011;13731;51.166;4.474;2023-11-22T09:35:38;213.45;;;192.02;;
25932;SDS011;13731;51.166;4.474;2023-11-22T09:38:05;192.85;;;180.38;;
25932;SDS011;13731;51.166;4.474;2023-11-22T09:40:41;211.93;;;198.60;;
25932;SDS011;13731;51.166;4.474;2023-11-22T09:43:11;199.23;;;186.27;;
25932;SDS011;13731;51.166;4.474;2023-11-22T09:45:42;224.10;;;210.75;;
25932;SDS011;13731;51.166;4.474;2023-11-22T09:48:19;212.88;;;196.30;;
25932;SDS011;13731;51.166;4.474;2023-11-22T09:53:31;210.87;;;193.40;;
25932;SDS011;13731;51.166;4.474;2023-11-22T09:55:59;198.77;;;183.85;;
25932;SDS011;13731;51.166;4.474;2023-11-22T09:58:32;208.18;;;193.38;;
25932;SDS011;13731;51.166;4.474;2023-11-22T10:00:59;223.77;;;210.48;;
25932;SDS011;13731;51.166;4.474;2023-11-22T10:03:26;210.90;;;197.18;;
25932;SDS011;13731;51.166;4.474;2023-11-22T10:05:58;204.13;;;190.57;;
25932;SDS011;13731;51.166;4.474;2023-11-22T10:08:25;214.93;;;200.60;;
25932;SDS011;13731;51.166;4.474;2023-11-22T10:10:53;190.25;;;177.73;;
25932;SDS011;13731;51.166;4.474;2023-11-22T10:13:19;203.50;;;190.95;;
25932;SDS011;13731;51.166;4.474;2023-11-22T10:15:49;201.57;;;187.27;;
25932;SDS011;13731;51.166;4.474;2023-11-22T10:18:18;188.07;;;175.27;;
25932;SDS011;13731;51.166;4.474;2023-11-22T10:20:45;206.32;;;192.68;;
25932;SDS011;13731;51.166;4.474;2023-11-22T10:23:15;216.05;;;202.32;;
25932;SDS011;13731;51.166;4.474;2023-11-22T10:25:46;228.77;;;214.07;;
25932;SDS011;13731;51.166;4.474;2023-11-22T10:28:18;217.95;;;203.80;;
25932;SDS011;13731;51.166;4.474;2023-11-22T10:30:48;189.93;;;177.25;;
25932;SDS011;13731;51.166;4.474;2023-11-22T10:33:18;163.02;;;151.43;;
25932;SDS011;13731;51.166;4.474;2023-11-22T10:35:48;200.18;;;185.40;;
25932;SDS011;13731;51.166;4.474;2023-11-22T10:38:16;223.63;;;208.27;;
25932;SDS011;13731;51.166;4.474;2023-11-22T10:40:43;217.82;;;204.00;;
25932;SDS011;13731;51.166;4.474;2023-11-22T10:43:13;222.18;;;206.98;;
25932;SDS011;13731;51.166;4.474;2023-11-22T10:45:41;218.90;;;205.20;;
25932;SDS011;13731;51.166;4.474;2023-11-22T10:48:15;220.20;;;204.90;;
25932;SDS011;13731;51.166;4.474;2023-11-22T10:50:41;244.45;;;229.20;;
25932;SDS011;13731;51.166;4.474;2023-11-22T10:53:11;207.13;;;193.63;;
25932;SDS011;13731;51.166;4.474;2023-11-22T10:55:49;215.93;;;201.05;;
25932;SDS011;13731;51.166;4.474;2023-11-22T10:58:23;184.05;;;172.25;;
25932;SDS011;13731;51.166;4.474;2023-11-22T11:00:50;213.57;;;200.07;;
25932;SDS011;13731;51.166;4.474;2023-11-22T11:03:18;192.40;;;179.77;;
25932;SDS011;13731;51.166;4.474;2023-11-22T11:05:50;198.30;;;185.65;;
25932;SDS011;13731;51.166;4.474;2023-11-22T11:08:21;207.98;;;194.98;;
25932;SDS011;13731;51.166;4.474;2023-11-22T11:10:53;157.75;;;147.38;;
25932;SDS011;13731;51.166;4.474;2023-11-22T11:13:21;159.50;;;149.15;;
25932;SDS011;13731;51.166;4.474;2023-11-22T11:15:49;182.30;;;169.95;;
25932;SDS011;13731;51.166;4.474;2023-11-22T11:18:16;206.20;;;193.00;;
25932;SDS011;13731;51.166;4.474;2023-11-22T11:20:49;205.18;;;192.13;;
25932;SDS011;13731;51.166;4.474;2023-11-22T11:23:19;212.57;;;199.32;;
25932;SDS011;13731;51.166;4.474;2023-11-22T11:25:50;216.38;;;202.35;;
25932;SDS011;13731;51.166;4.474;2023-11-22T11:28:19;192.43;;;180.40;;
25932;SDS011;13731;51.166;4.474;2023-11-22T11:33:14;184.80;;;173.30;;
25932;SDS011;13731;51.166;4.474;2023-11-22T11:35:46;205.48;;;193.10;;
25932;SDS011;13731;51.166;4.474;2023-11-22T11:38:16;190.00;;;178.43;;
25932;SDS011;13731;51.166;4.474;2023-11-22T11:40:46;183.32;;;171.05;;
25932;SDS011;13731;51.166;4.474;2023-11-22T11:43:13;208.23;;;195.30;;
25932;SDS011;13731;51.166;4.474;2023-11-22T11:45:40;217.55;;;203.52;;
25932;SDS011;13731;51.166;4.474;2023-11-22T11:48:14;204.70;;;191.73;;
25932;SDS011;13731;51.166;4.474;2023-11-22T11:50:41;222.38;;;208.85;;
25932;SDS011;13731;51.166;4.474;2023-11-22T11:53:09;213.93;;;201.05;;
25932;SDS011;13731;51.166;4.474;2023-11-22T11:55:36;204.15;;;191.88;;
25932;SDS011;13731;51.166;4.474;2023-11-22T11:58:05;198.90;;;186.75;;
25932;SDS011;13731;51.166;4.474;2023-11-22T12:00:37;198.15;;;186.02;;
25932;SDS011;13731;51.166;4.474;2023-11-22T12:03:07;191.32;;;179.65;;
25932;SDS011;13731;51.166;4.474;2023-11-22T12:05:36;173.68;;;162.68;;
25932;SDS011;13731;51.166;4.474;2023-11-22T12:08:03;186.63;;;174.95;;
25932;SDS011;13731;51.166;4.474;2023-11-22T12:10:29;169.15;;;158.60;;
25932;SDS011;13731;51.166;4.474;2023-11-22T12:12:55;189.98;;;178.23;;
25932;SDS011;13731;51.166;4.474;2023-11-22T12:15:21;183.80;;;172.40;;
25932;SDS011;13731;51.166;4.474;2023-11-22T12:17:50;187.18;;;175.63;;
25932;SDS011;13731;51.166;4.474;2023-11-22T12:20:17;192.98;;;181.07;;
25932;SDS011;13731;51.166;4.474;2023-11-22T12:25:13;141.00;;;131.32;;
25932;SDS011;13731;51.166;4.474;2023-11-22T12:27:41;155.35;;;145.10;;
25932;SDS011;13731;51.166;4.474;2023-11-22T12:30:08;161.13;;;150.60;;
25932;SDS011;13731;51.166;4.474;2023-11-22T12:35:04;144.75;;;135.13;;
25932;SDS011;13731;51.166;4.474;2023-11-22T12:37:33;148.27;;;138.20;;
25932;SDS011;13731;51.166;4.474;2023-11-22T12:40:06;168.38;;;157.30;;
25932;SDS011;13731;51.166;4.474;2023-11-22T12:42:46;155.70;;;145.38;;
25932;SDS011;13731;51.166;4.474;2023-11-22T12:45:20;160.48;;;149.55;;
25932;SDS011;13731;51.166;4.474;2023-11-22T12:47:49;156.63;;;145.45;;
25932;SDS011;13731;51.166;4.474;2023-11-22T12:53:08;145.13;;;134.10;;
25932;SDS011;13731;51.166;4.474;2023-11-22T12:55:43;151.40;;;140.57;;
25932;SDS011;13731;51.166;4.474;2023-11-22T12:58:11;153.52;;;142.77;;
25932;SDS011;13731;51.166;4.474;2023-11-22T13:00:40;161.40;;;149.73;;
25932;SDS011;13731;51.166;4.474;2023-11-22T13:03:07;153.98;;;143.00;;
25932;SDS011;13731;51.166;4.474;2023-11-22T13:05:42;166.98;;;155.55;;
25932;SDS011;13731;51.166;4.474;2023-11-22T13:08:13;143.48;;;132.98;;
25932;SDS011;13731;51.166;4.474;2023-11-22T13:10:40;130.20;;;120.95;;
25932;SDS011;13731;51.166;4.474;2023-11-22T13:13:12;135.63;;;126.40;;
25932;SDS011;13731;51.166;4.474;2023-11-22T13:15:39;155.43;;;145.15;;
25932;SDS011;13731;51.166;4.474;2023-11-22T13:18:06;152.18;;;142.60;;
25932;SDS011;13731;51.166;4.474;2023-11-22T13:20:33;153.90;;;143.45;;
25932;SDS011;13731;51.166;4.474;2023-11-22T13:23:01;166.20;;;155.38;;
25932;SDS011;13731;51.166;4.474;2023-11-22T13:25:28;157.45;;;147.20;;
25932;SDS011;13731;51.166;4.474;2023-11-22T13:27:54;149.55;;;139.90;;
25932;SDS011;13731;51.166;4.474;2023-11-22T13:30:21;155.63;;;145.13;;
25932;SDS011;13731;51.166;4.474;2023-11-22T13:32:48;167.73;;;156.80;;
25932;SDS011;13731;51.166;4.474;2023-11-22T13:35:15;156.27;;;146.43;;
25932;SDS011;13731;51.166;4.474;2023-11-22T13:37:42;157.43;;;147.65;;
25932;SDS011;13731;51.166;4.474;2023-11-22T13:40:13;162.40;;;151.80;;
25932;SDS011;13731;51.166;4.474;2023-11-22T13:42:45;140.77;;;131.38;;
25932;SDS011;13731;51.166;4.474;2023-11-22T13:45:13;134.35;;;124.82;;
25932;SDS011;13731;51.166;4.474;2023-11-22T13:50:13;155.07;;;144.77;;
25932;SDS011;13731;51.166;4.474;2023-11-22T13:52:46;155.57;;;145.15;;
25932;SDS011;13731;51.166;4.474;2023-11-22T13:55:20;157.23;;;146.95;;
25932;SDS011;13731;51.166;4.474;2023-11-22T14:00:19;130.65;;;121.40;;
25932;SDS011;13731;51.166;4.474;2023-11-22T14:02:48;153.52;;;143.23;;
25932;SDS011;13731;51.166;4.474;2023-11-22T14:05:18;149.68;;;140.02;;
25932;SDS011;13731;51.166;4.474;2023-11-22T14:07:44;156.48;;;146.52;;
25932;SDS011;13731;51.166;4.474;2023-11-22T14:10:10;162.23;;;151.63;;
25932;SDS011;13731;51.166;4.474;2023-11-22T14:12:37;163.40;;;152.95;;
25932;SDS011;13731;51.166;4.474;2023-11-22T14:15:03;173.32;;;162.40;;
25932;SDS011;13731;51.166;4.474;2023-11-22T14:17:31;176.38;;;165.10;;
25932;SDS011;13731;51.166;4.474;2023-11-22T14:19:57;177.82;;;166.52;;
25932;SDS011;13731;51.166;4.474;2023-11-22T14:22:23;161.45;;;151.52;;